createdAt,value
2019-02-22T00:00:37.433Z,19.50
2019-02-22T00:03:08.268Z,19.40
2019-02-22T00:05:37.204Z,19.50
2019-02-22T00:08:07.074Z,19.10
2019-02-22T00:10:37.558Z,17.53
2019-02-22T00:13:06.759Z,21.57
2019-02-22T00:15:37.633Z,39.63
2019-02-22T00:18:06.990Z,30.17
2019-02-22T00:20:35.733Z,23.30
2019-02-22T00:23:04.669Z,25.87
2019-02-22T00:25:33.819Z,23.60
2019-02-22T00:28:04.607Z,19.67
2019-02-22T00:30:33.991Z,21.07
2019-02-22T00:33:03.129Z,19.07
2019-02-22T00:35:32.961Z,17.43
2019-02-22T00:38:02.065Z,18.20
2019-02-22T00:40:32.874Z,18.87
2019-02-22T00:43:02.202Z,17.37
2019-02-22T00:45:31.806Z,18.57
2019-02-22T00:48:02.223Z,19.47
2019-02-22T00:50:32.394Z,17.50
2019-02-22T00:53:01.416Z,18.53
2019-02-22T00:56:05.846Z,18.07
2019-02-22T00:58:34.901Z,18.67
2019-02-22T01:01:05.289Z,19.10
2019-02-22T01:03:33.931Z,23.37
2019-02-22T01:06:02.931Z,19.23
2019-02-22T01:08:31.944Z,21.53
2019-02-22T01:11:02.081Z,19.23
2019-02-22T01:13:30.744Z,18.97
2019-02-22T01:16:00.277Z,15.63
2019-02-22T01:18:30.847Z,16.37
2019-02-22T01:21:01.255Z,17.37
2019-02-22T01:23:32.400Z,15.63
2019-02-22T01:26:01.741Z,18.53
2019-02-22T01:28:31.099Z,16.57
2019-02-22T01:31:00.165Z,18.20
2019-02-22T01:33:29.055Z,18.97
2019-02-22T01:35:58.341Z,18.63
2019-02-22T01:38:27.858Z,19.83
2019-02-22T01:40:56.680Z,19.47
2019-02-22T01:43:26.393Z,20.93
2019-02-22T01:45:56.766Z,18.77
2019-02-22T01:48:25.237Z,15.10
2019-02-22T01:50:53.644Z,14.23
2019-02-22T01:53:23.395Z,15.33
2019-02-22T01:55:52.627Z,14.63
2019-02-22T01:58:21.862Z,16.93
2019-02-22T02:00:51.280Z,19.77
2019-02-22T02:03:19.884Z,28.63
2019-02-22T02:05:48.860Z,18.43
2019-02-22T02:08:17.936Z,25.43
2019-02-22T02:10:53.917Z,21.77
2019-02-22T02:13:16.954Z,23.60
2019-02-22T02:15:45.512Z,23.30
2019-02-22T02:18:14.821Z,19.90
2019-02-22T02:20:54.050Z,20.50
2019-02-22T02:23:24.036Z,19.07
2019-02-22T02:25:52.839Z,13.33
2019-02-22T02:28:21.519Z,12.47
2019-02-22T02:30:50.861Z,11.80
2019-02-22T02:33:19.493Z,12.13
2019-02-22T02:35:48.001Z,13.63
2019-02-22T02:38:16.638Z,14.97
2019-02-22T02:40:46.440Z,21.63
2019-02-22T02:43:16.842Z,23.93
2019-02-22T02:45:47.320Z,20.03
2019-02-22T02:48:18.517Z,22.57
2019-02-22T02:50:48.860Z,17.60
2019-02-22T02:53:19.651Z,14.53
2019-02-22T02:55:49.022Z,12.33
2019-02-22T02:58:20.005Z,16.07
2019-02-22T03:00:50.811Z,16.53
2019-02-22T03:03:21.450Z,17.30
2019-02-22T03:06:15.353Z,18.00
2019-02-22T03:08:45.203Z,15.27
2019-02-22T03:11:20.656Z,14.23
2019-02-22T03:13:45.462Z,14.93
2019-02-22T03:16:15.862Z,16.30
2019-02-22T03:18:45.862Z,15.30
2019-02-22T03:21:17.088Z,18.73
2019-02-22T03:23:47.115Z,24.97
2019-02-22T03:26:16.658Z,19.30
2019-02-22T03:28:46.494Z,24.70
2019-02-22T03:31:18.178Z,22.03
2019-02-22T03:33:47.997Z,19.90
2019-02-22T03:36:18.318Z,19.87
2019-02-22T03:38:47.494Z,16.23
2019-02-22T03:41:19.673Z,12.77
2019-02-22T03:43:50.900Z,14.40
2019-02-22T03:46:21.954Z,18.33
2019-02-22T03:48:50.926Z,17.90
2019-02-22T03:51:20.453Z,17.03
2019-02-22T03:53:57.589Z,20.40
2019-02-22T03:56:29.203Z,22.47
2019-02-22T03:58:58.276Z,16.77
2019-02-22T04:01:28.181Z,17.00
2019-02-22T04:03:57.849Z,16.53
2019-02-22T04:06:27.482Z,18.43
2019-02-22T04:08:57.654Z,24.20
2019-02-22T04:11:29.679Z,21.87
2019-02-22T04:14:00.267Z,16.67
2019-02-22T04:16:30.662Z,19.33
2019-02-22T04:18:59.646Z,18.03
2019-02-22T04:21:29.023Z,19.23
2019-02-22T04:23:58.287Z,18.87
2019-02-22T04:26:28.053Z,18.37
2019-02-22T04:28:59.511Z,11.80
2019-02-22T04:31:28.911Z,13.57
2019-02-22T04:33:59.251Z,13.77
2019-02-22T04:36:29.135Z,19.77
2019-02-22T04:39:02.379Z,20.90
2019-02-22T04:41:33.546Z,17.47
2019-02-22T04:44:04.147Z,20.90
2019-02-22T04:46:33.548Z,23.03
2019-02-22T04:49:03.359Z,19.53
2019-02-22T04:51:33.909Z,20.60
2019-02-22T04:54:03.139Z,20.53
2019-02-22T04:56:31.709Z,25.90
2019-02-22T04:59:01.415Z,22.13
2019-02-22T05:01:30.644Z,17.03
2019-02-22T05:04:00.626Z,16.00
2019-02-22T05:06:30.041Z,20.47
2019-02-22T05:08:59.885Z,19.87
2019-02-22T05:11:29.554Z,19.27
2019-02-22T05:14:00.069Z,19.00
2019-02-22T05:16:30.311Z,17.87
2019-02-22T05:18:59.722Z,17.10
2019-02-22T05:21:30.814Z,15.90
2019-02-22T05:24:01.181Z,17.23
2019-02-22T05:26:32.006Z,16.77
2019-02-22T05:29:02.271Z,18.07
2019-02-22T05:31:31.674Z,20.07
2019-02-22T05:34:02.117Z,20.20
2019-02-22T05:36:33.061Z,20.63
2019-02-22T05:39:04.125Z,22.00
2019-02-22T05:41:34.103Z,24.63
2019-02-22T05:44:04.246Z,22.37
2019-02-22T05:46:33.670Z,22.53
2019-02-22T05:49:02.926Z,23.30
2019-02-22T05:51:33.891Z,21.73
2019-02-22T05:54:03.350Z,22.53
2019-02-22T05:56:33.734Z,22.63
2019-02-22T05:59:03.305Z,23.13
2019-02-22T06:01:32.881Z,22.03
2019-02-22T06:04:02.194Z,18.77
2019-02-22T06:06:32.086Z,19.57
2019-02-22T06:09:04.345Z,22.97
2019-02-22T06:11:37.366Z,21.93
2019-02-22T06:14:07.271Z,22.43
2019-02-22T06:16:45.106Z,20.43
2019-02-22T06:19:16.700Z,19.53
2019-02-22T06:21:48.731Z,19.17
2019-02-22T06:24:18.884Z,17.83
2019-02-22T06:26:48.434Z,18.50
2019-02-22T06:29:19.595Z,18.57
2019-02-22T06:31:50.984Z,18.93
2019-02-22T06:34:21.343Z,17.70
2019-02-22T06:37:01.687Z,16.00
2019-02-22T06:39:26.119Z,18.20
2019-02-22T06:41:56.090Z,18.10
2019-02-22T06:44:26.065Z,17.83
2019-02-22T06:46:55.430Z,19.87
2019-02-22T06:49:25.896Z,20.10
2019-02-22T06:51:55.674Z,19.33
2019-02-22T06:54:24.661Z,18.40
2019-02-22T06:56:55.379Z,17.70
2019-02-22T06:59:24.826Z,16.93
2019-02-22T07:01:55.056Z,20.83
2019-02-22T07:04:24.052Z,19.57
2019-02-22T07:06:53.727Z,27.53
2019-02-22T07:09:24.367Z,30.03
2019-02-22T07:12:04.731Z,21.57
2019-02-22T07:14:34.423Z,22.07
2019-02-22T07:17:04.809Z,20.20
2019-02-22T07:19:36.018Z,22.20
2019-02-22T07:22:06.642Z,20.43
2019-02-22T07:24:36.160Z,18.90
2019-02-22T07:27:06.297Z,25.97
2019-02-22T07:29:35.079Z,27.40
2019-02-22T07:32:06.125Z,17.50
2019-02-22T07:34:35.514Z,19.50
2019-02-22T07:37:05.244Z,17.43
2019-02-22T07:39:35.859Z,18.03
2019-02-22T07:42:04.848Z,17.03
2019-02-22T07:44:34.266Z,15.97
2019-02-22T07:47:04.741Z,18.50
2019-02-22T07:49:34.527Z,16.60
2019-02-22T07:52:04.964Z,17.87
2019-02-22T07:54:34.864Z,15.20
2019-02-22T07:57:05.154Z,14.27
2019-02-22T07:59:35.555Z,12.80
2019-02-22T08:02:07.094Z,15.50
2019-02-22T08:04:37.259Z,15.13
2019-02-22T08:07:06.206Z,16.60
2019-02-22T08:09:35.606Z,14.77
2019-02-22T08:12:05.484Z,12.73
2019-02-22T08:14:36.449Z,13.60
2019-02-22T08:17:06.405Z,12.80
2019-02-22T08:19:36.541Z,11.97
2019-02-22T08:22:06.965Z,11.70
2019-02-22T08:24:37.776Z,11.83
2019-02-22T08:27:09.349Z,12.37
2019-02-22T08:29:39.740Z,12.47
2019-02-22T08:32:09.814Z,12.17
2019-02-22T08:34:40.609Z,10.43
2019-02-22T08:37:10.406Z,10.87
2019-02-22T08:39:39.783Z,10.93
2019-02-22T08:42:09.496Z,10.47
2019-02-22T08:44:38.704Z,9.90
2019-02-22T08:47:09.294Z,11.20
2019-02-22T08:49:39.224Z,10.43
2019-02-22T08:52:09.592Z,10.90
2019-02-22T08:54:47.096Z,13.40
2019-02-22T08:57:14.261Z,18.80
2019-02-22T08:59:43.919Z,20.50
2019-02-22T09:02:13.697Z,12.77
2019-02-22T09:04:43.969Z,11.77
2019-02-22T09:07:14.344Z,17.13
2019-02-22T09:09:44.386Z,16.83
2019-02-22T09:12:14.644Z,13.00
2019-02-22T09:14:45.044Z,12.43
2019-02-22T09:17:14.687Z,12.27
2019-02-22T09:19:44.876Z,13.40
2019-02-22T09:22:22.294Z,11.93
2019-02-22T09:24:45.729Z,12.40
2019-02-22T09:27:15.429Z,11.70
2019-02-22T09:29:44.431Z,12.27
2019-02-22T09:32:13.206Z,12.13
2019-02-22T09:34:43.173Z,12.43
2019-02-22T09:37:12.777Z,13.33
2019-02-22T09:39:42.699Z,11.20
2019-02-22T09:42:12.388Z,10.80
2019-02-22T09:44:41.631Z,13.57
2019-02-22T09:47:11.722Z,11.43
2019-02-22T09:49:40.586Z,12.87
2019-02-22T09:52:13.134Z,11.47
2019-02-22T09:54:43.350Z,15.53
2019-02-22T09:57:14.066Z,17.40
2019-02-22T09:59:43.306Z,11.57
2019-02-22T10:02:12.676Z,18.27
2019-02-22T10:04:42.290Z,23.63
2019-02-22T10:07:12.599Z,12.97
2019-02-22T10:09:43.134Z,16.27
2019-02-22T10:12:13.216Z,13.10
2019-02-22T10:14:43.658Z,12.63
2019-02-22T10:17:14.084Z,13.10
2019-02-22T10:19:44.521Z,15.07
2019-02-22T10:22:14.908Z,14.73
2019-02-22T10:24:45.526Z,13.03
2019-02-22T10:27:16.741Z,12.47
2019-02-22T10:29:46.050Z,12.10
2019-02-22T10:32:18.252Z,12.77
2019-02-22T10:34:49.289Z,12.63
2019-02-22T10:37:18.686Z,14.80
2019-02-22T10:39:50.234Z,12.68
2019-02-22T10:42:22.385Z,12.30
2019-02-22T10:44:52.890Z,12.50
2019-02-22T10:47:23.222Z,12.47
2019-02-22T10:49:55.707Z,30.92
2019-02-22T10:52:26.116Z,12.47
2019-02-22T10:54:56.566Z,12.30
2019-02-22T10:57:27.314Z,11.57
2019-02-22T10:59:58.057Z,12.33
2019-02-22T11:02:31.216Z,11.50
2019-02-22T11:05:02.894Z,12.00
2019-02-22T11:07:33.251Z,12.43
2019-02-22T11:10:05.764Z,13.73
2019-02-22T11:12:39.246Z,11.37
2019-02-22T11:15:11.612Z,11.67
2019-02-22T11:17:41.745Z,11.50
2019-02-22T11:20:12.967Z,12.93
2019-02-22T11:22:43.807Z,13.90
2019-02-22T11:25:14.000Z,14.77
2019-02-22T11:27:46.216Z,14.85
2019-02-22T11:30:16.536Z,13.10
2019-02-22T11:32:46.991Z,11.87
2019-02-22T11:35:16.827Z,12.53
2019-02-22T11:37:48.285Z,12.17
2019-02-22T11:40:20.107Z,11.43
2019-02-22T11:42:50.146Z,11.30
2019-02-22T11:45:19.189Z,11.22
2019-02-22T11:47:49.434Z,10.80
2019-02-22T11:50:19.708Z,9.90
2019-02-22T11:52:49.024Z,10.40
2019-02-22T11:55:19.942Z,10.53
2019-02-22T11:57:51.487Z,10.13
2019-02-22T12:00:21.788Z,10.25
2019-02-22T12:02:50.867Z,10.00
2019-02-22T12:05:20.348Z,14.90
2019-02-22T12:07:50.731Z,12.47
2019-02-22T12:10:21.597Z,12.23
2019-02-22T12:12:52.300Z,10.50
2019-02-22T12:15:22.041Z,10.35
2019-02-22T12:17:51.300Z,9.58
2019-02-22T12:20:21.350Z,12.00
2019-02-22T12:22:51.213Z,10.18
2019-02-22T12:25:21.011Z,10.20
2019-02-22T12:27:50.652Z,17.75
2019-02-22T12:30:20.431Z,10.53
2019-02-22T12:32:51.293Z,10.63
2019-02-22T12:35:20.447Z,9.30
2019-02-22T12:37:49.589Z,9.80
2019-02-22T12:40:18.834Z,9.60
2019-02-22T12:42:49.010Z,12.25
2019-02-22T12:45:18.596Z,10.35
2019-02-22T12:47:47.578Z,10.85
2019-02-22T12:50:17.132Z,11.45
2019-02-22T12:52:46.101Z,15.07
2019-02-22T12:55:17.106Z,18.73
2019-02-22T12:57:48.266Z,18.37
2019-02-22T13:00:21.913Z,10.82
2019-02-22T13:03:01.491Z,10.35
2019-02-22T13:05:24.855Z,10.78
2019-02-22T13:07:56.165Z,10.80
2019-02-22T13:10:26.410Z,12.18
2019-02-22T13:12:56.224Z,12.70
2019-02-22T13:15:37.869Z,14.30
2019-02-22T13:18:10.523Z,15.60
2019-02-22T13:20:41.166Z,11.07
2019-02-22T13:23:10.490Z,11.83
2019-02-22T13:25:40.562Z,10.85
2019-02-22T13:28:10.973Z,12.85
2019-02-22T13:30:40.251Z,12.10
2019-02-22T13:33:10.277Z,11.30
2019-02-22T13:35:40.216Z,10.25
2019-02-22T13:38:11.699Z,12.50
2019-02-22T13:40:43.102Z,12.90
2019-02-22T13:43:13.518Z,15.72
2019-02-22T13:45:43.156Z,14.23
2019-02-22T13:48:13.559Z,11.63
2019-02-22T13:50:43.521Z,11.90
2019-02-22T13:53:14.407Z,9.57
2019-02-22T13:55:46.009Z,10.40
2019-02-22T13:58:15.583Z,10.10
2019-02-22T14:00:45.366Z,12.73
2019-02-22T14:03:16.219Z,13.88
2019-02-22T14:05:46.050Z,11.33
2019-02-22T14:08:16.197Z,11.33
2019-02-22T14:10:45.995Z,13.75
2019-02-22T14:13:16.038Z,18.73
2019-02-22T14:15:46.672Z,11.35
2019-02-22T14:18:15.640Z,12.25
2019-02-22T14:20:46.780Z,10.82
2019-02-22T14:23:16.414Z,23.90
2019-02-22T14:25:47.166Z,10.85
2019-02-22T14:28:18.195Z,12.43
2019-02-22T14:30:50.852Z,14.53
2019-02-22T14:33:20.713Z,13.93
2019-02-22T14:35:51.284Z,11.55
2019-02-22T14:38:20.450Z,17.73
2019-02-22T14:40:49.220Z,13.00
2019-02-22T14:43:18.722Z,14.07
2019-02-22T14:45:52.214Z,15.32
2019-02-22T14:48:21.176Z,13.43
2019-02-22T14:50:50.794Z,19.65
2019-02-22T14:53:21.204Z,14.40
2019-02-22T14:55:52.011Z,13.22
2019-02-22T14:58:22.859Z,17.35
2019-02-22T15:00:51.735Z,17.98
2019-02-22T15:03:22.576Z,13.78
2019-02-22T15:05:56.207Z,13.87
2019-02-22T15:08:27.336Z,28.05
2019-02-22T15:10:58.332Z,16.00
2019-02-22T15:13:28.249Z,24.57
2019-02-22T15:16:30.084Z,36.30
2019-02-22T15:19:00.171Z,80.07
2019-02-22T15:21:34.355Z,19.20
2019-02-22T15:24:02.531Z,17.73
2019-02-22T15:26:31.544Z,15.63
2019-02-22T15:29:02.314Z,13.00
2019-02-22T15:31:36.053Z,16.83
2019-02-22T15:34:08.329Z,19.80
2019-02-22T15:36:37.685Z,21.00
2019-02-22T15:39:07.139Z,19.13
2019-02-22T15:41:36.974Z,12.80
2019-02-22T15:44:06.570Z,14.17
2019-02-22T15:46:37.196Z,13.70
2019-02-22T15:49:06.432Z,16.80
2019-02-22T15:51:39.672Z,13.93
2019-02-22T15:54:09.968Z,13.47
2019-02-22T15:56:39.667Z,17.80
2019-02-22T15:59:10.853Z,16.47
2019-02-22T16:01:39.524Z,15.53
2019-02-22T16:04:45.185Z,23.23
2019-02-22T16:07:15.396Z,20.93
2019-02-22T16:09:45.946Z,22.00
2019-02-22T16:12:19.564Z,14.70
2019-02-22T16:14:48.988Z,14.37
2019-02-22T16:17:18.979Z,15.50
2019-02-22T16:19:51.479Z,14.30
2019-02-22T16:22:22.258Z,14.17
2019-02-22T16:24:52.774Z,13.97
2019-02-22T16:27:23.374Z,19.87
2019-02-22T16:29:53.707Z,16.30
2019-02-22T16:32:25.150Z,14.13
2019-02-22T16:34:55.488Z,15.00
2019-02-22T16:37:25.976Z,15.27
2019-02-22T16:39:56.672Z,16.43
2019-02-22T16:42:28.331Z,18.17
2019-02-22T16:44:59.079Z,19.00
2019-02-22T16:47:39.595Z,24.00
2019-02-22T16:50:01.617Z,23.90
2019-02-22T16:52:33.670Z,33.73
2019-02-22T16:55:06.286Z,36.80
2019-02-22T16:57:38.796Z,89.90
2019-02-22T17:00:10.888Z,76.73
2019-02-22T17:02:41.817Z,27.80
2019-02-22T17:05:14.941Z,21.27
2019-02-22T17:07:47.344Z,24.57
2019-02-22T17:10:20.480Z,19.77
2019-02-22T17:12:51.307Z,22.60
2019-02-22T17:15:22.791Z,25.63
2019-02-22T17:17:56.469Z,21.73
2019-02-22T17:20:26.537Z,24.23
2019-02-22T17:22:59.182Z,24.43
2019-02-22T17:25:35.527Z,22.03
2019-02-22T17:28:07.359Z,20.03
2019-02-22T17:30:37.795Z,17.27
2019-02-22T17:33:09.619Z,18.00
2019-02-22T17:35:39.903Z,17.57
2019-02-22T17:38:11.773Z,20.57
2019-02-22T17:40:44.604Z,19.73
2019-02-22T17:43:17.487Z,21.97
2019-02-22T17:45:48.091Z,26.30
2019-02-22T17:48:20.927Z,25.30
2019-02-22T17:50:52.746Z,22.20
2019-02-22T17:53:24.803Z,19.17
2019-02-22T17:55:58.456Z,16.70
2019-02-22T17:58:29.215Z,15.90
2019-02-22T18:01:01.116Z,16.97
2019-02-22T18:03:32.416Z,16.93
2019-02-22T18:06:02.284Z,16.73
2019-02-22T18:08:32.579Z,16.13
2019-02-22T18:11:01.813Z,14.47
2019-02-22T18:13:31.446Z,15.00
2019-02-22T18:16:01.458Z,15.93
2019-02-22T18:18:32.239Z,15.37
2019-02-22T18:21:04.065Z,16.47
2019-02-22T18:23:34.058Z,16.50
2019-02-22T18:26:05.261Z,15.13
2019-02-22T18:28:36.887Z,16.57
2019-02-22T18:31:07.278Z,25.70
2019-02-22T18:33:39.740Z,14.40
2019-02-22T18:36:10.077Z,15.23
2019-02-22T18:38:41.160Z,14.63
2019-02-22T18:41:10.617Z,12.30
2019-02-22T18:43:41.122Z,15.03
2019-02-22T18:46:11.033Z,14.67
2019-02-22T18:48:43.712Z,21.90
2019-02-22T18:51:14.881Z,16.07
2019-02-22T18:53:45.856Z,16.27
2019-02-22T18:56:15.217Z,15.80
2019-02-22T18:58:44.387Z,14.80
2019-02-22T19:01:15.595Z,14.87
2019-02-22T19:03:44.919Z,19.00
2019-02-22T19:06:16.654Z,16.87
2019-02-22T19:08:46.851Z,18.67
2019-02-22T19:11:16.987Z,17.80
2019-02-22T19:13:46.079Z,18.90
2019-02-22T19:16:16.124Z,16.57
2019-02-22T19:18:46.019Z,22.27
2019-02-22T19:21:17.974Z,19.90
2019-02-22T19:23:47.539Z,21.73
2019-02-22T19:26:17.357Z,18.47
2019-02-22T19:28:48.047Z,21.80
2019-02-22T19:31:17.858Z,24.50
2019-02-22T19:33:49.931Z,17.57
2019-02-22T19:36:20.269Z,21.37
2019-02-22T19:38:50.902Z,23.27
2019-02-22T19:41:25.028Z,21.40
2019-02-22T19:43:55.814Z,19.70
2019-02-22T19:46:30.780Z,19.03
2019-02-22T19:49:07.254Z,19.00
2019-02-22T19:51:38.439Z,18.87
2019-02-22T19:54:08.926Z,18.17
2019-02-22T19:56:40.085Z,17.30
2019-02-22T19:59:14.721Z,17.60
2019-02-22T20:01:45.580Z,17.07
2019-02-22T20:04:14.624Z,18.73
2019-02-22T20:06:45.741Z,19.77
2019-02-22T20:09:15.974Z,20.13
2019-02-22T20:11:48.688Z,22.60
2019-02-22T20:14:19.498Z,18.77
2019-02-22T20:16:54.146Z,22.97
2019-02-22T20:19:24.063Z,18.53
2019-02-22T20:21:56.269Z,19.23
2019-02-22T20:24:26.755Z,19.40
2019-02-22T20:26:58.594Z,24.60
2019-02-22T20:29:28.119Z,23.27
2019-02-22T20:31:57.522Z,20.23
2019-02-22T20:34:28.662Z,19.50
2019-02-22T20:36:58.697Z,20.50
2019-02-22T20:39:29.976Z,19.67
2019-02-22T20:42:00.233Z,19.30
2019-02-22T20:44:30.078Z,19.83
2019-02-22T20:47:01.598Z,20.13
2019-02-22T20:49:34.731Z,19.87
2019-02-22T20:52:09.481Z,22.07
2019-02-22T20:54:39.774Z,20.80
2019-02-22T20:57:11.827Z,25.13
2019-02-22T20:59:40.905Z,24.17
2019-02-22T21:02:13.376Z,19.53
2019-02-22T21:04:42.519Z,20.53
2019-02-22T21:07:13.194Z,20.23
2019-02-22T21:09:43.064Z,22.87
2019-02-22T21:12:14.161Z,25.87
2019-02-22T21:14:44.520Z,23.93
2019-02-22T21:17:16.412Z,24.50
2019-02-22T21:19:48.655Z,21.67
2019-02-22T21:22:19.219Z,19.60
2019-02-22T21:24:50.036Z,21.30
2019-02-22T21:27:19.673Z,22.30
2019-02-22T21:29:49.257Z,21.23
2019-02-22T21:32:21.726Z,20.33
2019-02-22T21:34:51.513Z,20.40
2019-02-22T21:37:20.944Z,18.57
2019-02-22T21:39:50.783Z,20.63
2019-02-22T21:42:24.138Z,19.23
2019-02-22T21:44:54.604Z,19.20
2019-02-22T21:47:28.641Z,18.50
2019-02-22T21:49:59.945Z,17.90
2019-02-22T21:52:30.707Z,18.13
2019-02-22T21:55:00.397Z,13.70
2019-02-22T21:57:30.978Z,15.30
2019-02-22T22:00:01.584Z,14.17
2019-02-22T22:02:34.272Z,10.23
2019-02-22T22:05:08.819Z,13.63
2019-02-22T22:07:40.627Z,11.60
2019-02-22T22:10:12.139Z,12.23
2019-02-22T22:12:42.794Z,12.33
2019-02-22T22:15:14.385Z,10.97
2019-02-22T22:17:45.952Z,10.97
2019-02-22T22:20:15.942Z,11.70
2019-02-22T22:22:46.354Z,12.67
2019-02-22T22:25:17.471Z,12.30
2019-02-22T22:27:49.223Z,12.37
2019-02-22T22:30:19.131Z,14.60
2019-02-22T22:32:52.519Z,24.77
2019-02-22T22:35:21.201Z,11.57
2019-02-22T22:37:51.656Z,10.07
2019-02-22T22:40:23.288Z,10.30
2019-02-22T22:42:52.407Z,10.17
2019-02-22T22:45:22.702Z,9.23
2019-02-22T22:47:52.544Z,8.80
2019-02-22T22:50:22.586Z,9.00
2019-02-22T22:52:51.620Z,10.23
2019-02-22T22:55:21.935Z,9.90
2019-02-22T22:57:50.771Z,9.13
2019-02-22T23:01:01.655Z,8.60
2019-02-22T23:03:32.099Z,7.40
2019-02-22T23:06:02.645Z,8.63
2019-02-22T23:08:32.001Z,8.57
2019-02-22T23:11:01.266Z,7.90
2019-02-22T23:13:32.360Z,8.50
2019-02-22T23:16:02.906Z,7.77
2019-02-22T23:18:33.800Z,8.23
2019-02-22T23:21:03.843Z,7.53
2019-02-22T23:23:33.079Z,7.57
2019-02-22T23:26:03.451Z,7.67
2019-02-22T23:28:33.976Z,8.00
2019-02-22T23:31:03.429Z,7.73
2019-02-22T23:33:34.695Z,7.60
2019-02-22T23:36:03.868Z,6.90
2019-02-22T23:38:33.113Z,7.57
2019-02-22T23:41:04.126Z,8.13
2019-02-22T23:43:34.628Z,7.87
2019-02-22T23:46:04.246Z,7.30
2019-02-22T23:48:33.666Z,7.47
2019-02-22T23:51:03.787Z,7.07
2019-02-22T23:53:33.514Z,6.20
2019-02-22T23:56:03.294Z,7.50
2019-02-22T23:58:32.996Z,6.07
